createdAt,value
2019-03-26T00:04:12.281Z,97862.66
2019-03-26T00:09:11.221Z,97871.83
2019-03-26T00:14:07.891Z,97864.03
2019-03-26T00:19:04.601Z,97870.28
2019-03-26T00:24:01.442Z,97865.61
2019-03-26T00:28:58.289Z,97877.06
2019-03-26T00:33:54.929Z,97874.58
2019-03-26T00:38:51.622Z,97879.49
2019-03-26T00:43:48.561Z,97887.11
2019-03-26T00:48:45.207Z,97889.78
2019-03-26T00:53:41.833Z,97897.13
2019-03-26T00:58:38.467Z,97901.17
2019-03-26T01:03:35.097Z,97903.94
2019-03-26T01:08:31.747Z,97905.91
2019-03-26T01:13:28.413Z,97904.19
2019-03-26T01:18:25.168Z,97896.13
2019-03-26T01:23:21.853Z,97885.67
2019-03-26T01:28:18.406Z,97897.09
2019-03-26T01:33:15.074Z,97904.63
2019-03-26T01:38:11.685Z,97922.03
2019-03-26T01:43:08.339Z,97924.80
2019-03-26T01:48:04.970Z,97933.55
2019-03-26T01:53:01.649Z,97927.10
2019-03-26T01:57:58.586Z,97938.47
2019-03-26T02:02:55.215Z,97948.97
2019-03-26T02:07:51.843Z,97955.76
2019-03-26T02:12:48.853Z,97955.41
2019-03-26T02:17:45.631Z,97957.06
2019-03-26T02:22:42.274Z,97959.95
2019-03-26T02:27:38.955Z,97959.27
2019-03-26T02:32:35.664Z,97958.36
2019-03-26T02:37:32.310Z,97955.23
2019-03-26T02:42:28.945Z,97945.14
2019-03-26T02:47:25.619Z,97954.17
2019-03-26T02:52:22.500Z,97956.89
2019-03-26T02:57:19.211Z,97950.10
2019-03-26T03:02:15.927Z,97962.70
2019-03-26T03:07:12.601Z,97974.11
2019-03-26T03:12:09.229Z,97984.66
2019-03-26T03:17:05.807Z,97986.78
2019-03-26T03:22:02.432Z,97981.58
2019-03-26T03:26:59.145Z,97992.72
2019-03-26T03:31:55.790Z,97994.09
2019-03-26T03:36:52.457Z,97994.74
2019-03-26T03:41:49.164Z,98013.47
2019-03-26T03:46:48.605Z,98022.25
2019-03-26T03:51:49.581Z,98031.03
2019-03-26T03:56:49.609Z,98028.82
2019-03-26T04:01:47.992Z,98037.16
2019-03-26T04:06:44.616Z,98043.81
2019-03-26T04:11:43.095Z,98056.80
2019-03-26T04:16:39.743Z,98061.17
2019-03-26T04:21:36.443Z,98055.72
2019-03-26T04:26:33.106Z,98060.86
2019-03-26T04:31:29.710Z,98061.86
2019-03-26T04:36:26.734Z,98074.38
2019-03-26T04:41:23.621Z,98070.47
2019-03-26T04:46:20.187Z,98076.53
2019-03-26T04:51:16.891Z,98083.84
2019-03-26T04:56:13.579Z,98090.66
2019-03-26T05:01:10.127Z,98083.62
2019-03-26T05:06:06.823Z,98087.23
2019-03-26T05:11:36.224Z,98086.56
2019-03-26T05:16:32.987Z,98094.90
2019-03-26T05:21:29.644Z,98101.28
2019-03-26T05:26:26.712Z,98115.83
2019-03-26T05:31:23.351Z,98113.88
2019-03-26T05:36:19.962Z,98121.19
2019-03-26T05:41:16.879Z,98123.87
2019-03-26T05:46:13.684Z,98122.38
2019-03-26T05:51:14.564Z,98125.90
2019-03-26T05:56:15.241Z,98123.84
2019-03-26T06:01:13.365Z,98132.06
2019-03-26T06:06:10.207Z,98140.07
2019-03-26T06:11:06.966Z,98146.39
2019-03-26T06:16:03.657Z,98146.00
2019-03-26T06:21:00.626Z,98147.72
2019-03-26T06:25:57.336Z,98161.53
2019-03-26T06:30:54.090Z,98159.47
2019-03-26T06:35:50.830Z,98170.11
2019-03-26T06:40:50.232Z,98179.18
2019-03-26T06:45:47.123Z,98186.13
2019-03-26T06:50:44.312Z,98187.64
2019-03-26T06:55:40.995Z,98195.94
2019-03-26T07:00:37.759Z,98205.11
2019-03-26T07:05:34.487Z,98212.77
2019-03-26T07:10:31.715Z,98220.23
2019-03-26T07:15:28.506Z,98216.93
2019-03-26T07:20:26.391Z,98224.13
2019-03-26T07:25:23.187Z,98220.58
2019-03-26T07:30:41.499Z,98230.68
2019-03-26T07:35:38.357Z,98229.14
2019-03-26T07:40:35.104Z,98233.68
2019-03-26T07:45:32.127Z,98235.84
2019-03-26T07:50:29.020Z,98235.84
2019-03-26T07:55:25.638Z,98250.13
2019-03-26T08:00:33.152Z,98253.34
2019-03-26T08:05:30.227Z,98249.66
2019-03-26T08:10:28.166Z,98253.80
2019-03-26T08:22:35.780Z,98263.19
2019-03-26T08:27:44.336Z,98254.87
2019-03-26T08:32:40.951Z,98264.94
2019-03-26T08:37:37.568Z,98269.43
2019-03-26T08:42:34.209Z,98269.37
2019-03-26T08:47:30.839Z,98268.55
2019-03-26T08:52:27.477Z,98254.41
2019-03-26T08:57:24.276Z,98253.43
2019-03-26T09:02:20.925Z,98251.52
2019-03-26T09:07:17.939Z,98264.70
2019-03-26T09:12:14.732Z,98264.28
2019-03-26T09:17:11.409Z,98272.16
2019-03-26T09:22:08.177Z,98272.11
2019-03-26T09:27:05.155Z,98266.05
2019-03-26T09:32:02.006Z,98273.77
2019-03-26T09:36:58.565Z,98280.14
2019-03-26T09:41:55.418Z,98279.71
2019-03-26T09:46:52.385Z,98284.64
2019-03-26T09:51:49.078Z,98281.62
2019-03-26T09:56:45.852Z,98280.15
2019-03-26T10:01:42.630Z,98276.69
2019-03-26T10:06:39.275Z,98272.20
2019-03-26T10:11:35.822Z,98269.27
2019-03-26T10:16:32.612Z,98261.93
2019-03-26T10:21:29.385Z,98257.84
2019-03-26T10:26:26.037Z,98254.65
2019-03-26T10:31:22.663Z,98249.96
2019-03-26T10:36:19.451Z,98248.09
2019-03-26T10:41:18.643Z,98249.38
2019-03-26T10:46:14.786Z,98248.08
2019-03-26T10:51:11.514Z,98251.52
2019-03-26T10:56:08.299Z,98251.89
2019-03-26T11:01:05.058Z,98255.28
2019-03-26T11:06:01.766Z,98255.46
2019-03-26T11:10:58.373Z,98249.60
2019-03-26T11:15:55.099Z,98247.29
2019-03-26T11:21:01.942Z,98245.81
2019-03-26T11:25:50.229Z,98243.11
2019-03-26T11:30:47.045Z,98245.81
2019-03-26T11:35:43.769Z,98244.05
2019-03-26T11:40:40.490Z,98246.72
2019-03-26T11:45:37.348Z,98245.14
2019-03-26T11:50:33.964Z,98235.75
2019-03-26T11:55:30.713Z,98237.22
2019-03-26T12:00:36.039Z,98247.71
2019-03-26T12:05:32.794Z,98238.28
2019-03-26T12:10:30.621Z,98238.88
2019-03-26T12:15:27.463Z,98241.50
2019-03-26T12:20:26.298Z,98240.89
2019-03-26T12:25:23.342Z,98239.79
2019-03-26T12:36:40.243Z,98211.92
2019-03-26T13:05:40.662Z,98208.09
2019-03-26T13:11:52.421Z,98210.61
2019-03-26T13:23:28.744Z,98196.81
2019-03-26T13:28:40.325Z,98184.58
2019-03-26T13:33:51.159Z,98181.10
2019-03-26T13:38:53.016Z,98181.13
2019-03-26T13:43:54.493Z,98194.20
2019-03-26T13:48:55.770Z,98187.25
2019-03-26T13:54:05.447Z,98185.95
2019-03-26T13:59:15.388Z,98179.64
2019-03-26T14:04:36.149Z,98177.61
2019-03-26T14:09:59.050Z,98171.30
2019-03-26T14:15:42.788Z,98166.91
2019-03-26T14:20:56.406Z,98166.74
2019-03-26T18:07:41.382Z,98171.75
2019-03-26T18:13:10.111Z,98174.18
2019-03-26T18:30:40.866Z,98198.91
2019-03-26T18:36:36.828Z,98204.59
2019-03-26T18:42:22.481Z,98201.91
2019-03-26T18:53:34.221Z,98207.40
2019-03-26T19:05:26.296Z,98223.24
2019-03-26T19:10:30.955Z,98227.20
2019-03-26T19:15:28.105Z,98230.30
2019-03-26T19:20:28.204Z,98231.66
2019-03-26T19:25:28.304Z,98236.56
2019-03-26T19:36:46.911Z,98240.41
2019-03-26T19:41:44.038Z,98240.55
2019-03-26T19:46:41.090Z,98239.64
2019-03-26T19:51:37.962Z,98240.73
2019-03-26T19:56:39.174Z,98246.23
2019-03-26T20:01:40.023Z,98248.13
2019-03-26T20:06:39.611Z,98257.13
2019-03-26T20:11:43.955Z,98259.45
2019-03-26T20:16:42.057Z,98260.81
2019-03-26T20:21:39.180Z,98265.44
2019-03-26T20:26:36.335Z,98261.95
2019-03-26T20:31:33.372Z,98255.77
2019-03-26T20:36:30.355Z,98267.47
2019-03-26T20:41:27.376Z,98261.75
2019-03-26T20:46:24.044Z,98269.28
2019-03-26T20:51:25.829Z,98268.90
2019-03-26T20:56:25.570Z,98267.04
2019-03-26T21:01:23.662Z,98275.87
2019-03-26T21:06:20.630Z,98274.92
2019-03-26T21:11:30.617Z,98277.95
2019-03-26T21:16:27.656Z,98274.80
2019-03-26T21:21:25.994Z,98284.59
2019-03-26T21:26:24.320Z,98286.52
2019-03-26T21:31:23.729Z,98287.30
2019-03-26T21:36:20.532Z,98292.48
2019-03-26T21:41:19.142Z,98290.88
2019-03-26T21:46:15.838Z,98293.55
2019-03-26T21:51:12.853Z,98287.27
2019-03-26T21:56:10.787Z,98288.80
2019-03-26T22:01:08.061Z,98296.09
2019-03-26T22:06:06.331Z,98296.16
2019-03-26T22:11:03.018Z,98295.53
2019-03-26T22:16:03.021Z,98302.66
2019-03-26T22:21:02.692Z,98292.19
2019-03-26T22:25:59.728Z,98295.56
2019-03-26T22:30:56.449Z,98298.77
2019-03-26T22:35:55.873Z,98296.70
2019-03-26T22:40:53.352Z,98301.46
2019-03-26T22:45:50.028Z,98299.09
2019-03-26T22:50:47.735Z,98295.77
2019-03-26T22:55:44.318Z,98295.34
2019-03-26T23:00:41.334Z,98288.38
2019-03-26T23:05:38.159Z,98288.44
2019-03-26T23:10:34.884Z,98293.91
2019-03-26T23:15:31.663Z,98296.51
2019-03-26T23:20:28.691Z,98302.31
2019-03-26T23:25:25.373Z,98311.86
2019-03-26T23:30:22.030Z,98319.22
2019-03-26T23:35:23.337Z,98316.00
2019-03-26T23:40:20.605Z,98313.33
2019-03-26T23:45:17.767Z,98319.47
2019-03-26T23:50:20.965Z,98316.26
2019-03-26T23:55:21.514Z,98301.44
